createdAt,value
2022-10-23T00:01:32.783Z,2.58
2022-10-23T00:04:02.457Z,2.00
2022-10-23T00:06:31.455Z,2.20
2022-10-23T00:08:58.463Z,1.95
2022-10-23T00:11:27.982Z,2.58
2022-10-23T00:13:57.250Z,2.00
2022-10-23T00:16:23.855Z,2.15
2022-10-23T00:18:50.426Z,2.28
2022-10-23T00:21:18.350Z,2.15
2022-10-23T00:23:45.894Z,1.98
2022-10-23T00:26:16.159Z,2.05
2022-10-23T00:28:51.472Z,2.10
2022-10-23T00:31:19.219Z,1.83
2022-10-23T00:33:46.002Z,2.15
2022-10-23T00:36:14.906Z,2.00
2022-10-23T00:38:44.387Z,2.20
2022-10-23T00:41:18.505Z,2.00
2022-10-23T00:44:05.148Z,2.00
2022-10-23T00:46:32.409Z,2.17
2022-10-23T00:48:59.799Z,1.92
2022-10-23T00:51:30.070Z,1.92
2022-10-23T00:54:06.687Z,1.90
2022-10-23T00:56:46.901Z,2.00
2022-10-23T00:59:14.120Z,1.90
2022-10-23T01:01:41.332Z,1.70
2022-10-23T01:04:09.137Z,1.85
2022-10-23T01:06:42.910Z,2.08
2022-10-23T01:09:28.526Z,1.83
2022-10-23T01:12:13.154Z,2.17
2022-10-23T01:14:50.762Z,2.03
2022-10-23T01:17:25.838Z,2.03
2022-10-23T01:20:07.594Z,1.95
2022-10-23T01:22:49.122Z,1.75
2022-10-23T01:25:40.494Z,1.70
2022-10-23T01:28:12.172Z,1.80
2022-10-23T01:30:43.809Z,1.70
2022-10-23T01:33:24.790Z,1.90
2022-10-23T01:36:03.145Z,1.90
2022-10-23T01:38:39.406Z,2.00
2022-10-23T01:41:20.004Z,1.90
2022-10-23T01:43:59.919Z,1.80
2022-10-23T01:46:31.397Z,1.92
2022-10-23T01:49:01.088Z,1.67
2022-10-23T01:51:31.385Z,1.60
2022-10-23T01:54:06.778Z,1.75
2022-10-23T01:56:37.710Z,1.50
2022-10-23T01:59:09.970Z,1.50
2022-10-23T02:01:43.742Z,1.80
2022-10-23T02:04:14.922Z,1.60
2022-10-23T02:06:42.017Z,1.98
2022-10-23T02:09:08.871Z,2.20
2022-10-23T02:11:42.854Z,1.77
2022-10-23T02:14:21.322Z,1.65
2022-10-23T02:16:52.573Z,1.48
2022-10-23T02:19:27.961Z,1.85
2022-10-23T02:22:10.408Z,1.70
2022-10-23T02:24:46.418Z,1.70
2022-10-23T02:27:18.623Z,1.52
2022-10-23T02:29:53.297Z,1.77
2022-10-23T02:32:24.608Z,1.60
2022-10-23T02:34:51.441Z,1.40
2022-10-23T02:37:18.075Z,1.65
2022-10-23T02:39:45.193Z,1.85
2022-10-23T02:42:45.419Z,1.75
2022-10-23T02:45:19.455Z,1.92
2022-10-23T02:48:12.389Z,1.60
2022-10-23T02:50:59.179Z,1.60
2022-10-23T02:53:35.840Z,1.58
2022-10-23T02:56:37.972Z,1.52
2022-10-23T02:59:32.128Z,1.50
2022-10-23T03:02:07.023Z,1.42
2022-10-23T03:04:40.114Z,1.63
2022-10-23T03:07:12.570Z,1.70
2022-10-23T03:09:39.437Z,1.30
2022-10-23T03:12:06.849Z,1.48
2022-10-23T03:14:34.561Z,1.52
2022-10-23T03:17:02.673Z,1.42
2022-10-23T03:19:29.270Z,1.73
2022-10-23T03:21:56.321Z,1.40
2022-10-23T03:24:22.912Z,1.40
2022-10-23T03:26:49.520Z,1.60
2022-10-23T03:29:16.110Z,1.63
2022-10-23T03:31:45.314Z,1.55
2022-10-23T03:34:14.956Z,1.60
2022-10-23T03:36:41.870Z,1.50
2022-10-23T03:39:09.775Z,1.50
2022-10-23T03:41:36.406Z,1.58
2022-10-23T03:46:34.765Z,1.50
2022-10-23T03:49:01.450Z,1.67
2022-10-23T03:51:28.190Z,1.50
2022-10-23T03:53:55.337Z,1.55
2022-10-23T03:56:22.354Z,1.40
2022-10-23T03:58:49.214Z,1.40
2022-10-23T04:01:15.875Z,1.50
2022-10-23T04:03:42.500Z,1.40
2022-10-23T04:06:09.175Z,1.58
2022-10-23T04:08:36.203Z,1.60
2022-10-23T04:11:08.596Z,2.03
2022-10-23T04:13:44.012Z,1.48
2022-10-23T04:16:10.601Z,1.50
2022-10-23T04:18:37.553Z,1.20
2022-10-23T04:21:04.153Z,1.20
2022-10-23T04:23:32.476Z,1.45
2022-10-23T04:25:59.182Z,1.52
2022-10-23T04:28:27.036Z,1.50
2022-10-23T04:30:54.507Z,1.48
2022-10-23T04:33:21.541Z,1.85
2022-10-23T04:35:50.517Z,1.60
2022-10-23T04:38:17.114Z,1.38
2022-10-23T04:40:43.865Z,1.33
2022-10-23T04:43:10.436Z,1.42
2022-10-23T04:45:39.335Z,1.30
2022-10-23T04:48:06.049Z,1.25
2022-10-23T04:51:00.434Z,1.63
2022-10-23T04:53:45.503Z,1.17
2022-10-23T04:56:23.358Z,1.33
2022-10-23T04:59:02.254Z,1.45
2022-10-23T05:01:29.962Z,1.80
2022-10-23T05:03:57.529Z,1.60
2022-10-23T05:06:24.126Z,1.50
2022-10-23T05:09:10.786Z,1.40
2022-10-23T05:11:54.665Z,1.52
2022-10-23T05:14:22.884Z,1.75
2022-10-23T05:17:04.168Z,1.40
2022-10-23T05:19:37.605Z,1.60
2022-10-23T05:22:05.118Z,1.42
2022-10-23T05:24:49.679Z,1.30
2022-10-23T05:27:20.273Z,1.80
2022-10-23T05:29:46.874Z,1.40
2022-10-23T05:32:15.815Z,1.58
2022-10-23T05:34:43.622Z,1.77
2022-10-23T05:37:13.239Z,1.70
2022-10-23T05:39:40.662Z,1.95
2022-10-23T05:42:12.441Z,1.75
2022-10-23T05:44:40.003Z,1.75
2022-10-23T05:47:12.410Z,1.85
2022-10-23T05:49:57.810Z,1.90
2022-10-23T05:52:27.171Z,1.80
2022-10-23T05:55:09.825Z,1.85
2022-10-23T05:58:01.440Z,2.08
2022-10-23T06:00:47.954Z,1.98
2022-10-23T06:03:35.317Z,1.90
2022-10-23T06:06:04.651Z,2.00
2022-10-23T06:08:40.491Z,2.28
2022-10-23T06:11:12.685Z,2.13
2022-10-23T06:13:39.487Z,2.25
2022-10-23T06:16:15.078Z,2.40
2022-10-23T06:18:42.302Z,1.88
2022-10-23T06:21:14.168Z,2.05
2022-10-23T06:23:42.612Z,1.85
2022-10-23T06:26:17.438Z,1.88
2022-10-23T06:28:53.364Z,2.10
2022-10-23T06:31:20.496Z,2.15
2022-10-23T06:33:50.202Z,2.25
2022-10-23T06:36:17.250Z,1.90
2022-10-23T06:38:44.695Z,2.22
2022-10-23T06:41:17.725Z,1.73
2022-10-23T06:43:51.615Z,1.73
2022-10-23T06:46:32.863Z,1.67
2022-10-23T06:49:17.665Z,1.83
2022-10-23T06:51:47.608Z,1.63
2022-10-23T06:54:15.183Z,1.60
2022-10-23T06:56:51.286Z,3.45
2022-10-23T06:59:22.107Z,1.65
2022-10-23T07:01:51.288Z,1.80
2022-10-23T07:04:18.157Z,1.80
2022-10-23T07:06:44.934Z,1.42
2022-10-23T07:09:11.679Z,1.33
2022-10-23T07:11:53.783Z,1.55
2022-10-23T07:14:27.229Z,1.60
2022-10-23T07:16:54.063Z,1.65
2022-10-23T07:19:21.401Z,1.73
2022-10-23T07:21:54.896Z,1.60
2022-10-23T07:24:42.842Z,1.70
2022-10-23T07:27:21.983Z,1.23
2022-10-23T07:29:54.851Z,1.88
2022-10-23T07:32:23.919Z,1.38
2022-10-23T07:35:11.930Z,1.50
2022-10-23T07:37:42.266Z,1.48
2022-10-23T07:40:09.445Z,1.40
2022-10-23T07:42:42.840Z,1.73
2022-10-23T07:45:10.289Z,1.40
2022-10-23T07:47:40.387Z,1.13
2022-10-23T07:50:08.825Z,1.30
2022-10-23T07:52:36.228Z,1.45
2022-10-23T07:55:10.280Z,1.40
2022-10-23T07:57:40.139Z,4.40
2022-10-23T08:00:25.797Z,1.60
2022-10-23T08:03:00.092Z,1.40
2022-10-23T08:05:26.944Z,1.55
2022-10-23T08:07:58.671Z,1.60
2022-10-23T08:10:25.300Z,1.67
2022-10-23T08:12:52.115Z,1.40
2022-10-23T08:15:23.591Z,1.50
2022-10-23T08:17:54.854Z,1.50
2022-10-23T08:20:42.730Z,1.70
2022-10-23T08:23:12.310Z,1.40
2022-10-23T08:25:40.390Z,1.95
2022-10-23T08:28:08.913Z,1.55
2022-10-23T08:30:43.758Z,1.40
2022-10-23T08:33:11.172Z,1.38
2022-10-23T08:35:38.607Z,1.48
2022-10-23T08:38:06.739Z,1.70
2022-10-23T08:40:38.807Z,1.60
2022-10-23T08:43:41.921Z,1.50
2022-10-23T08:46:35.731Z,1.70
2022-10-23T08:49:35.436Z,1.65
2022-10-23T08:52:14.355Z,1.85
2022-10-23T08:54:57.380Z,1.85
2022-10-23T08:57:26.296Z,1.77
2022-10-23T08:59:58.773Z,1.70
2022-10-23T09:02:31.795Z,1.80
2022-10-23T09:04:58.941Z,1.95
2022-10-23T09:08:03.283Z,1.80
2022-10-23T09:10:41.913Z,2.10
2022-10-23T09:13:29.185Z,1.92
2022-10-23T09:16:30.184Z,2.00
2022-10-23T09:18:58.307Z,2.00
2022-10-23T09:21:29.519Z,2.10
2022-10-23T09:23:56.543Z,2.10
2022-10-23T09:26:23.460Z,2.15
2022-10-23T09:28:55.243Z,2.15
2022-10-23T09:31:21.931Z,1.75
2022-10-23T09:34:01.279Z,1.58
2022-10-23T09:36:29.445Z,1.60
2022-10-23T09:38:58.954Z,1.80
2022-10-23T09:41:37.351Z,1.65
2022-10-23T09:44:07.343Z,1.85
2022-10-23T09:46:40.199Z,1.90
2022-10-23T09:49:14.473Z,1.75
2022-10-23T09:52:06.934Z,1.73
2022-10-23T09:54:46.991Z,1.85
2022-10-23T09:57:28.764Z,2.10
2022-10-23T10:00:17.730Z,2.13
2022-10-23T10:03:00.199Z,1.98
2022-10-23T10:05:41.583Z,2.10
2022-10-23T10:08:20.151Z,2.20
2022-10-23T10:11:01.852Z,2.10
2022-10-23T10:13:34.610Z,2.30
2022-10-23T10:16:09.371Z,1.83
2022-10-23T10:18:50.325Z,2.20
2022-10-23T10:21:25.149Z,2.17
2022-10-23T10:24:08.033Z,2.50
2022-10-23T10:26:59.626Z,2.22
2022-10-23T10:29:46.276Z,2.00
2022-10-23T10:32:33.774Z,2.15
2022-10-23T10:35:15.036Z,2.30
2022-10-23T10:37:49.373Z,2.20
2022-10-23T10:40:23.239Z,2.45
2022-10-23T10:43:08.417Z,2.35
2022-10-23T10:45:41.708Z,2.30
2022-10-23T10:48:18.711Z,2.10
2022-10-23T10:51:17.139Z,2.13
2022-10-23T10:54:00.117Z,2.30
2022-10-23T10:56:30.291Z,1.95
2022-10-23T10:59:03.027Z,2.03
2022-10-23T11:01:50.810Z,2.33
2022-10-23T11:04:40.200Z,1.88
2022-10-23T11:07:15.211Z,2.00
2022-10-23T11:09:43.375Z,1.90
2022-10-23T11:12:23.846Z,2.00
2022-10-23T11:14:51.140Z,1.90
2022-10-23T11:17:40.410Z,1.73
2022-10-23T11:20:25.694Z,2.33
2022-10-23T11:22:59.463Z,1.80
2022-10-23T11:25:51.482Z,2.00
2022-10-23T11:28:36.559Z,2.17
2022-10-23T11:31:19.384Z,2.20
2022-10-23T11:34:04.563Z,2.05
2022-10-23T11:36:48.986Z,1.70
2022-10-23T11:39:22.614Z,1.70
2022-10-23T11:41:52.621Z,2.15
2022-10-23T11:44:26.503Z,1.77
2022-10-23T11:47:26.672Z,1.77
2022-10-23T11:50:08.990Z,2.00
2022-10-23T11:52:50.309Z,1.90
2022-10-23T11:55:22.454Z,1.98
2022-10-23T11:58:21.013Z,1.80
2022-10-23T12:01:01.696Z,1.75
2022-10-23T12:03:36.727Z,1.90
2022-10-23T12:06:05.690Z,2.10
2022-10-23T12:08:38.281Z,2.00
2022-10-23T12:11:05.329Z,1.95
2022-10-23T12:13:37.699Z,1.77
2022-10-23T12:16:07.517Z,2.00
2022-10-23T12:18:45.659Z,2.13
2022-10-23T12:21:27.944Z,2.03
2022-10-23T12:24:22.431Z,1.80
2022-10-23T12:26:56.410Z,2.35
2022-10-23T12:29:29.031Z,2.22
2022-10-23T12:32:24.243Z,2.17
2022-10-23T12:35:20.208Z,2.33
2022-10-23T12:38:34.059Z,2.45
2022-10-23T12:41:16.042Z,2.70
2022-10-23T12:43:53.255Z,2.30
2022-10-23T12:46:39.687Z,2.25
2022-10-23T12:49:19.093Z,2.22
2022-10-23T12:51:46.104Z,2.80
2022-10-23T12:54:20.611Z,3.05
2022-10-23T12:56:48.001Z,2.22
2022-10-23T12:59:21.365Z,2.67
2022-10-23T13:01:51.802Z,2.58
2022-10-23T13:04:28.393Z,2.53
2022-10-23T13:06:57.813Z,2.38
2022-10-23T13:09:30.501Z,2.20
2022-10-23T13:12:24.411Z,1.98
2022-10-23T13:15:14.821Z,2.03
2022-10-23T13:17:43.240Z,2.25
2022-10-23T13:20:18.787Z,1.80
2022-10-23T13:22:47.984Z,2.03
2022-10-23T13:25:27.939Z,1.85
2022-10-23T13:28:16.270Z,2.13
2022-10-23T13:30:46.352Z,2.10
2022-10-23T13:33:23.197Z,2.05
2022-10-23T13:35:57.975Z,2.30
2022-10-23T13:38:39.555Z,1.88
2022-10-23T13:41:19.273Z,2.10
2022-10-23T13:43:47.635Z,1.88
2022-10-23T13:46:16.373Z,1.77
2022-10-23T13:48:43.001Z,2.15
2022-10-23T13:51:23.982Z,2.10
2022-10-23T13:53:52.766Z,2.10
2022-10-23T13:56:21.706Z,2.00
2022-10-23T13:58:49.008Z,2.17
2022-10-23T14:01:28.381Z,2.47
2022-10-23T14:03:56.915Z,2.40
2022-10-23T14:06:23.869Z,2.65
2022-10-23T14:08:50.887Z,2.17
2022-10-23T14:11:19.920Z,2.50
2022-10-23T14:13:47.644Z,2.40
2022-10-23T14:16:16.471Z,2.70
2022-10-23T14:18:43.073Z,2.72
2022-10-23T14:21:12.306Z,2.20
2022-10-23T14:23:39.035Z,2.45
2022-10-23T14:26:25.671Z,2.40
2022-10-23T14:28:57.549Z,2.08
2022-10-23T14:31:26.942Z,2.40
2022-10-23T14:33:56.315Z,2.72
2022-10-23T14:36:23.946Z,2.33
2022-10-23T14:38:55.740Z,2.15
2022-10-23T14:41:22.512Z,2.22
2022-10-23T14:43:49.076Z,2.35
2022-10-23T14:46:18.243Z,2.55
2022-10-23T14:48:47.053Z,2.40
2022-10-23T14:51:25.174Z,2.70
2022-10-23T14:53:58.840Z,2.65
2022-10-23T14:56:26.085Z,2.60
2022-10-23T14:58:52.652Z,2.30
2022-10-23T15:01:19.584Z,2.28
2022-10-23T15:03:46.490Z,2.60
2022-10-23T15:06:17.519Z,2.15
2022-10-23T15:08:44.990Z,2.53
2022-10-23T15:11:12.692Z,2.30
2022-10-23T15:13:39.501Z,2.65
2022-10-23T15:16:10.520Z,2.22
2022-10-23T15:21:09.703Z,2.65
2022-10-23T15:23:38.552Z,2.63
2022-10-23T15:26:08.305Z,2.97
2022-10-23T15:28:35.586Z,2.53
2022-10-23T15:31:02.380Z,2.67
2022-10-23T15:33:29.005Z,2.67
2022-10-23T15:35:56.539Z,3.55
2022-10-23T15:38:23.723Z,2.80
2022-10-23T15:40:50.660Z,3.28
2022-10-23T15:43:17.329Z,2.80
2022-10-23T15:45:43.968Z,3.10
2022-10-23T15:48:10.727Z,3.17
2022-10-23T15:50:37.379Z,2.80
2022-10-23T15:53:04.354Z,3.08
2022-10-23T15:55:31.363Z,3.40
2022-10-23T15:58:04.174Z,4.13
2022-10-23T16:00:30.961Z,3.28
2022-10-23T16:02:58.009Z,3.13
2022-10-23T16:05:24.602Z,3.50
2022-10-23T16:07:51.237Z,3.40
2022-10-23T16:10:18.004Z,3.53
2022-10-23T16:12:44.721Z,2.90
2022-10-23T16:15:11.543Z,3.28
2022-10-23T16:17:38.118Z,2.80
2022-10-23T16:20:05.006Z,3.13
2022-10-23T16:22:31.600Z,3.10
2022-10-23T16:24:58.196Z,3.60
2022-10-23T16:27:24.882Z,3.17
2022-10-23T16:29:51.477Z,3.13
2022-10-23T16:32:18.381Z,3.17
2022-10-23T16:34:45.474Z,3.63
2022-10-23T16:37:12.339Z,3.60
2022-10-23T16:39:51.774Z,3.63
2022-10-23T16:42:36.761Z,3.45
2022-10-23T16:45:13.551Z,3.67
2022-10-23T16:47:40.175Z,3.42
2022-10-23T16:50:07.117Z,3.47
2022-10-23T16:52:34.568Z,3.45
2022-10-23T16:55:01.133Z,3.35
2022-10-23T16:57:28.023Z,3.60
2022-10-23T16:59:54.766Z,3.88
2022-10-23T17:02:21.495Z,3.80
2022-10-23T17:04:48.122Z,4.20
2022-10-23T17:07:14.761Z,4.35
2022-10-23T17:09:44.436Z,4.40
2022-10-23T17:12:11.041Z,4.05
2022-10-23T17:14:38.709Z,4.20
2022-10-23T17:17:06.816Z,4.72
2022-10-23T17:19:44.558Z,4.05
2022-10-23T17:22:13.357Z,4.57
2022-10-23T17:24:40.880Z,5.07
2022-10-23T17:27:07.770Z,5.63
2022-10-23T17:29:34.545Z,4.70
2022-10-23T17:32:01.365Z,4.03
2022-10-23T17:34:28.058Z,3.90
2022-10-23T17:36:55.379Z,4.10
2022-10-23T17:39:25.300Z,4.55
2022-10-23T17:41:52.205Z,4.60
2022-10-23T17:44:18.985Z,4.60
2022-10-23T17:46:45.690Z,4.05
2022-10-23T17:49:13.021Z,4.70
2022-10-23T17:51:40.484Z,7.00
2022-10-23T17:54:12.507Z,6.25
2022-10-23T17:56:41.069Z,5.07
2022-10-23T17:59:12.354Z,5.18
2022-10-23T18:01:39.615Z,5.15
2022-10-23T18:04:07.565Z,5.65
2022-10-23T18:06:40.178Z,6.40
2022-10-23T18:09:07.770Z,5.82
2022-10-23T18:11:38.298Z,5.57
2022-10-23T18:14:06.893Z,5.28
2022-10-23T18:16:35.079Z,5.68
2022-10-23T18:19:02.109Z,5.65
2022-10-23T18:21:28.872Z,5.47
2022-10-23T18:23:57.909Z,6.05
2022-10-23T18:26:26.717Z,5.57
2022-10-23T18:28:56.933Z,5.55
2022-10-23T18:31:25.817Z,6.35
2022-10-23T18:34:04.274Z,5.72
2022-10-23T18:36:34.237Z,5.63
2022-10-23T18:39:01.479Z,4.97
2022-10-23T18:41:32.922Z,5.60
2022-10-23T18:43:59.519Z,6.72
2022-10-23T18:46:26.079Z,5.78
2022-10-23T18:48:52.663Z,5.55
2022-10-23T18:51:22.172Z,5.70
2022-10-23T18:53:49.129Z,6.00
2022-10-23T18:56:22.164Z,5.93
2022-10-23T18:58:57.587Z,5.65
2022-10-23T19:01:27.079Z,5.85
2022-10-23T19:06:27.617Z,6.57
2022-10-23T19:08:54.687Z,5.90
2022-10-23T19:11:24.142Z,5.90
2022-10-23T19:13:51.385Z,5.45
2022-10-23T19:16:33.842Z,6.47
2022-10-23T19:19:12.146Z,5.72
2022-10-23T19:21:41.385Z,6.15
2022-10-23T19:24:13.581Z,5.32
2022-10-23T19:26:42.021Z,5.97
2022-10-23T19:29:12.186Z,5.63
2022-10-23T19:31:43.464Z,6.32
2022-10-23T19:34:10.747Z,6.65
2022-10-23T19:36:37.360Z,5.95
2022-10-23T19:39:04.127Z,5.70
2022-10-23T19:41:32.189Z,5.95
2022-10-23T19:43:58.962Z,5.97
2022-10-23T19:46:26.704Z,6.50
2022-10-23T19:48:53.711Z,5.90
2022-10-23T19:51:20.658Z,5.85
2022-10-23T19:53:48.891Z,5.30
2022-10-23T19:56:15.518Z,5.22
2022-10-23T19:58:42.245Z,4.68
2022-10-23T20:01:16.325Z,5.22
2022-10-23T20:03:48.789Z,4.72
2022-10-23T20:06:19.911Z,4.55
2022-10-23T20:08:47.654Z,4.38
2022-10-23T20:11:24.106Z,3.75
2022-10-23T20:13:51.650Z,3.70
2022-10-23T20:16:27.199Z,4.00
2022-10-23T20:18:54.424Z,3.42
2022-10-23T20:21:21.627Z,3.95
2022-10-23T20:23:48.679Z,3.92
2022-10-23T20:26:18.336Z,2.95
2022-10-23T20:28:47.020Z,2.83
2022-10-23T20:31:15.265Z,3.35
2022-10-23T20:33:42.681Z,3.10
2022-10-23T20:36:20.561Z,3.50
2022-10-23T20:38:48.042Z,3.30
2022-10-23T20:41:16.531Z,3.20
2022-10-23T20:43:43.872Z,3.47
2022-10-23T20:46:10.926Z,3.35
2022-10-23T20:48:43.661Z,3.42
2022-10-23T20:51:14.833Z,3.20
2022-10-23T20:53:43.689Z,3.47
2022-10-23T20:56:17.558Z,3.80
2022-10-23T20:58:44.638Z,3.30
2022-10-23T21:01:16.272Z,3.30
2022-10-23T21:03:44.885Z,3.58
2022-10-23T21:06:14.447Z,3.28
2022-10-23T21:08:42.282Z,4.05
2022-10-23T21:11:15.050Z,3.78
2022-10-23T21:13:43.827Z,3.60
2022-10-23T21:16:18.278Z,4.15
2022-10-23T21:18:46.830Z,3.47
2022-10-23T21:21:19.768Z,4.25
2022-10-23T21:23:48.805Z,3.45
2022-10-23T21:26:17.212Z,4.18
2022-10-23T21:28:56.025Z,4.28
2022-10-23T21:31:28.048Z,3.92
2022-10-23T21:33:54.698Z,4.00
2022-10-23T21:36:23.908Z,4.47
2022-10-23T21:38:56.349Z,4.30
2022-10-23T21:41:29.548Z,4.57
2022-10-23T21:44:02.126Z,3.83
2022-10-23T21:46:30.654Z,4.30
2022-10-23T21:48:59.930Z,4.65
2022-10-23T21:51:30.505Z,4.40
2022-10-23T21:53:58.220Z,3.30
2022-10-23T21:56:24.724Z,3.90
2022-10-23T21:58:51.986Z,3.90
2022-10-23T22:01:18.625Z,4.03
2022-10-23T22:03:45.291Z,4.07
2022-10-23T22:06:20.690Z,4.30
2022-10-23T22:08:47.347Z,3.50
2022-10-23T22:11:15.033Z,3.88
2022-10-23T22:13:43.645Z,4.20
2022-10-23T22:16:12.124Z,3.88
2022-10-23T22:18:38.724Z,4.18
2022-10-23T22:21:11.887Z,3.90
2022-10-23T22:23:39.322Z,3.83
2022-10-23T22:26:08.510Z,3.97
2022-10-23T22:28:35.150Z,3.85
2022-10-23T22:31:02.026Z,4.32
2022-10-23T22:33:30.922Z,4.38
2022-10-23T22:36:02.263Z,4.72
2022-10-23T22:38:31.615Z,4.35
2022-10-23T22:41:02.028Z,4.47
2022-10-23T22:43:29.253Z,4.28
2022-10-23T22:46:13.445Z,4.18
2022-10-23T22:48:40.790Z,4.15
2022-10-23T22:51:10.558Z,4.50
2022-10-23T22:53:37.230Z,4.05
2022-10-23T22:56:13.401Z,4.95
2022-10-23T22:58:40.242Z,4.55
2022-10-23T23:01:12.985Z,4.60
2022-10-23T23:03:39.866Z,4.57
2022-10-23T23:06:08.197Z,4.88
2022-10-23T23:08:35.701Z,5.03
2022-10-23T23:11:02.411Z,5.13
2022-10-23T23:13:29.242Z,5.03
2022-10-23T23:15:56.380Z,5.63
2022-10-23T23:18:23.267Z,5.80
2022-10-23T23:20:49.878Z,5.28
2022-10-23T23:23:17.554Z,5.18
2022-10-23T23:25:46.279Z,5.57
2022-10-23T23:28:15.198Z,5.45
2022-10-23T23:30:42.887Z,5.30
2022-10-23T23:33:10.842Z,5.53
2022-10-23T23:35:45.352Z,5.60
2022-10-23T23:38:13.024Z,5.80
2022-10-23T23:40:40.101Z,6.10
2022-10-23T23:43:07.072Z,5.82
2022-10-23T23:45:33.838Z,6.28
2022-10-23T23:48:00.419Z,6.10
2022-10-23T23:50:28.048Z,6.00
2022-10-23T23:52:55.007Z,6.40
2022-10-23T23:55:21.765Z,5.75
2022-10-23T23:57:48.350Z,5.88
